createdAt,value
2023-03-29T00:00:37.474Z,0.60
2023-03-29T00:03:47.314Z,0.67
2023-03-29T00:06:55.955Z,0.40
2023-03-29T00:10:06.439Z,0.50
2023-03-29T00:13:16.756Z,0.97
2023-03-29T00:16:24.930Z,0.43
2023-03-29T00:19:35.697Z,0.70
2023-03-29T00:22:46.792Z,0.70
2023-03-29T00:25:56.127Z,0.37
2023-03-29T00:29:06.212Z,1.47
2023-03-29T00:32:14.815Z,0.20
2023-03-29T00:35:23.291Z,0.20
2023-03-29T00:38:32.140Z,0.37
2023-03-29T00:41:40.559Z,0.23
2023-03-29T00:45:11.251Z,0.30
2023-03-29T00:48:24.880Z,1.90
2023-03-29T00:51:39.261Z,0.30
2023-03-29T00:54:54.897Z,0.97
2023-03-29T00:58:08.428Z,1.03
2023-03-29T01:01:28.342Z,0.57
2023-03-29T01:04:42.909Z,1.10
2023-03-29T01:07:59.212Z,1.07
2023-03-29T01:11:13.941Z,0.57
2023-03-29T01:14:31.153Z,0.50
2023-03-29T01:17:43.377Z,1.43
2023-03-29T01:21:15.703Z,0.37
2023-03-29T01:24:47.593Z,0.40
2023-03-29T01:28:03.224Z,0.30
2023-03-29T01:31:21.003Z,0.30
2023-03-29T01:34:39.947Z,0.40
2023-03-29T01:37:57.676Z,0.40
2023-03-29T01:41:07.839Z,0.67
2023-03-29T01:44:26.050Z,0.67
2023-03-29T01:47:47.709Z,0.33
2023-03-29T01:51:04.790Z,1.33
2023-03-29T01:54:20.931Z,1.20
2023-03-29T01:57:33.004Z,0.90
2023-03-29T02:00:45.175Z,1.23
2023-03-29T02:05:03.658Z,0.30
2023-03-29T02:08:16.052Z,0.43
2023-03-29T02:11:29.286Z,0.30
2023-03-29T02:14:38.209Z,0.40
2023-03-29T02:17:51.006Z,0.40
2023-03-29T02:21:00.532Z,0.53
2023-03-29T02:24:16.614Z,0.50
2023-03-29T02:27:25.510Z,1.17
2023-03-29T02:30:48.176Z,0.57
2023-03-29T02:34:05.460Z,0.40
2023-03-29T02:37:19.067Z,0.50
2023-03-29T02:40:27.614Z,1.13
2023-03-29T02:43:37.768Z,0.70
2023-03-29T02:46:50.758Z,0.87
2023-03-29T02:50:01.598Z,1.03
2023-03-29T02:53:18.118Z,0.50
2023-03-29T02:56:31.734Z,2.07
2023-03-29T02:59:40.894Z,0.50
2023-03-29T03:02:50.857Z,1.43
2023-03-29T03:06:02.064Z,0.80
2023-03-29T03:09:12.063Z,0.33
2023-03-29T03:12:22.945Z,1.87
2023-03-29T03:15:35.539Z,0.50
2023-03-29T03:18:45.915Z,0.70
2023-03-29T03:21:56.054Z,0.40
2023-03-29T03:25:04.860Z,0.57
2023-03-29T03:28:13.887Z,0.70
2023-03-29T03:31:22.561Z,0.60
2023-03-29T03:34:52.225Z,0.40
2023-03-29T03:38:05.828Z,0.40
2023-03-29T03:41:14.722Z,1.13
2023-03-29T03:44:22.949Z,0.50
2023-03-29T03:47:48.049Z,0.53
2023-03-29T03:51:15.775Z,0.40
2023-03-29T03:54:25.711Z,1.50
2023-03-29T03:58:07.211Z,6.83
2023-03-29T04:01:17.137Z,7.57
2023-03-29T04:04:35.235Z,0.50
2023-03-29T04:07:54.214Z,2.70
2023-03-29T04:11:21.945Z,0.27
2023-03-29T04:14:32.143Z,0.37
2023-03-29T04:17:48.257Z,1.70
2023-03-29T04:21:09.337Z,0.20
2023-03-29T04:24:18.187Z,0.50
2023-03-29T04:27:43.096Z,0.50
2023-03-29T04:31:13.932Z,0.97
2023-03-29T04:34:49.343Z,0.40
2023-03-29T04:37:57.678Z,1.27
2023-03-29T04:41:06.448Z,0.60
2023-03-29T04:44:35.203Z,0.37
2023-03-29T04:47:46.619Z,1.40
2023-03-29T04:50:58.903Z,4.53
2023-03-29T04:54:07.635Z,1.07
2023-03-29T04:57:34.535Z,2.67
2023-03-29T05:00:51.599Z,1.90
2023-03-29T05:04:32.528Z,0.30
2023-03-29T05:07:47.385Z,0.30
2023-03-29T05:10:57.644Z,0.87
2023-03-29T05:14:09.599Z,0.87
2023-03-29T05:17:20.106Z,0.33
2023-03-29T05:20:29.795Z,1.60
2023-03-29T05:23:39.668Z,0.33
2023-03-29T05:27:17.105Z,0.50
2023-03-29T05:30:31.952Z,1.10
2023-03-29T05:33:55.929Z,0.40
2023-03-29T05:37:04.565Z,0.30
2023-03-29T05:40:26.081Z,0.50
2023-03-29T05:44:07.316Z,0.50
2023-03-29T05:47:16.789Z,0.30
2023-03-29T05:50:27.617Z,0.57
2023-03-29T05:53:38.443Z,1.77
2023-03-29T05:56:47.352Z,1.73
2023-03-29T05:59:57.343Z,0.30
2023-03-29T06:03:17.547Z,0.87
2023-03-29T06:06:30.107Z,0.47
2023-03-29T06:09:40.692Z,0.70
2023-03-29T06:12:50.228Z,1.73
2023-03-29T06:16:00.897Z,0.20
2023-03-29T06:19:10.405Z,0.17
2023-03-29T06:22:22.747Z,0.50
2023-03-29T06:25:31.822Z,0.83
2023-03-29T06:28:40.122Z,0.87
2023-03-29T06:31:49.241Z,1.53
2023-03-29T06:35:30.266Z,0.27
2023-03-29T06:38:48.021Z,0.13
2023-03-29T06:42:20.130Z,0.30
2023-03-29T06:45:48.160Z,0.30
2023-03-29T06:49:10.040Z,0.30
2023-03-29T06:52:37.601Z,2.07
2023-03-29T06:55:47.651Z,0.30
2023-03-29T06:59:09.362Z,1.73
2023-03-29T07:02:53.079Z,0.37
2023-03-29T07:06:04.392Z,0.40
2023-03-29T07:09:17.708Z,0.43
2023-03-29T07:12:57.909Z,0.20
2023-03-29T07:16:07.437Z,1.53
2023-03-29T07:19:22.932Z,1.10
2023-03-29T07:22:31.392Z,0.40
2023-03-29T07:25:42.149Z,1.13
2023-03-29T07:28:52.444Z,0.87
2023-03-29T07:32:01.689Z,0.63
2023-03-29T07:35:26.690Z,0.50
2023-03-29T07:38:35.219Z,3.00
2023-03-29T07:41:48.400Z,1.63
2023-03-29T07:44:58.516Z,0.50
2023-03-29T07:48:12.444Z,1.70
2023-03-29T07:51:31.690Z,0.77
2023-03-29T07:54:47.801Z,1.00
2023-03-29T07:58:11.040Z,0.97
2023-03-29T08:01:21.931Z,0.30
2023-03-29T08:04:49.738Z,0.70
2023-03-29T08:07:58.234Z,2.13
2023-03-29T08:11:26.761Z,1.37
2023-03-29T08:14:46.258Z,1.13
2023-03-29T08:18:02.277Z,1.47
2023-03-29T08:21:10.861Z,5.83
2023-03-29T08:24:20.921Z,1.87
2023-03-29T08:27:33.538Z,0.63
2023-03-29T08:30:42.369Z,0.97
2023-03-29T08:33:52.132Z,0.70
2023-03-29T08:37:19.740Z,0.53
2023-03-29T08:40:31.714Z,1.10
2023-03-29T08:44:07.976Z,1.03
2023-03-29T08:47:33.653Z,1.27
2023-03-29T08:50:49.102Z,1.63
2023-03-29T08:54:03.438Z,1.03
2023-03-29T08:57:28.923Z,0.47
2023-03-29T09:00:48.284Z,1.50
2023-03-29T09:04:08.869Z,0.17
2023-03-29T09:07:33.262Z,0.63
2023-03-29T09:10:48.815Z,2.60
2023-03-29T09:14:18.637Z,0.30
2023-03-29T09:17:49.559Z,1.03
2023-03-29T09:21:07.225Z,1.37
2023-03-29T09:24:39.347Z,0.57
2023-03-29T09:28:04.839Z,1.40
2023-03-29T09:31:29.348Z,0.90
2023-03-29T09:34:46.020Z,1.70
2023-03-29T09:38:01.501Z,2.13
2023-03-29T09:41:22.428Z,2.00
2023-03-29T09:44:38.304Z,0.40
2023-03-29T09:47:57.730Z,0.73
2023-03-29T09:51:10.106Z,0.73
2023-03-29T09:54:20.442Z,1.67
2023-03-29T09:57:53.163Z,1.47
2023-03-29T10:01:08.806Z,1.30
2023-03-29T10:04:17.628Z,0.30
2023-03-29T10:07:44.682Z,0.97
2023-03-29T10:10:58.433Z,1.63
2023-03-29T10:14:18.227Z,1.53
2023-03-29T10:17:33.338Z,0.20
2023-03-29T10:20:42.165Z,1.70
2023-03-29T10:23:59.063Z,1.03
2023-03-29T10:27:11.776Z,0.33
2023-03-29T10:30:38.559Z,1.73
2023-03-29T10:33:54.474Z,1.90
2023-03-29T10:37:03.502Z,0.50
2023-03-29T10:40:23.037Z,0.50
2023-03-29T10:43:38.587Z,1.10
2023-03-29T10:46:48.733Z,0.50
2023-03-29T10:49:59.934Z,1.50
2023-03-29T10:53:19.709Z,0.30
2023-03-29T10:56:41.262Z,0.67
2023-03-29T11:00:02.412Z,0.17
2023-03-29T11:03:33.783Z,0.10
2023-03-29T11:06:53.811Z,3.40
2023-03-29T11:10:38.411Z,0.20
2023-03-29T11:13:55.571Z,0.43
2023-03-29T11:17:22.415Z,2.00
2023-03-29T11:20:42.552Z,0.20
2023-03-29T11:24:08.880Z,0.67
2023-03-29T11:27:33.885Z,1.70
2023-03-29T11:30:50.022Z,1.90
2023-03-29T11:34:21.838Z,1.03
2023-03-29T11:37:42.974Z,1.63
2023-03-29T11:41:04.920Z,2.10
2023-03-29T11:44:21.858Z,0.30
2023-03-29T11:47:37.592Z,2.37
2023-03-29T11:50:54.170Z,1.80
2023-03-29T11:54:14.936Z,0.40
2023-03-29T11:57:30.127Z,0.80
2023-03-29T12:00:46.550Z,0.30
2023-03-29T12:04:00.300Z,1.87
2023-03-29T12:07:20.475Z,1.10
2023-03-29T12:10:37.269Z,0.67
2023-03-29T12:13:52.572Z,3.50
2023-03-29T12:17:05.712Z,2.87
2023-03-29T12:20:21.071Z,3.03
2023-03-29T12:23:33.510Z,0.47
2023-03-29T12:27:03.181Z,3.00
2023-03-29T12:30:55.568Z,3.63
2023-03-29T12:34:31.117Z,0.93
2023-03-29T12:38:11.218Z,0.33
2023-03-29T12:41:41.659Z,0.50
2023-03-29T12:45:21.591Z,2.90
2023-03-29T12:48:31.811Z,2.53
2023-03-29T12:51:43.717Z,0.43
2023-03-29T12:54:58.411Z,3.03
2023-03-29T12:58:22.394Z,0.40
2023-03-29T13:01:34.363Z,0.73
2023-03-29T13:04:52.231Z,3.30
2023-03-29T13:08:00.711Z,1.80
2023-03-29T13:11:28.339Z,4.27
2023-03-29T13:14:42.738Z,0.70
2023-03-29T13:18:12.270Z,2.77
2023-03-29T13:21:33.550Z,0.70
2023-03-29T13:25:19.078Z,1.37
2023-03-29T13:28:41.641Z,0.90
2023-03-29T13:32:00.723Z,2.00
2023-03-29T13:35:28.392Z,2.67
2023-03-29T13:38:48.691Z,14.63
2023-03-29T13:42:18.685Z,1.80
2023-03-29T13:45:29.744Z,4.13
2023-03-29T13:49:00.753Z,0.83
2023-03-29T13:52:22.508Z,1.13
2023-03-29T13:55:47.033Z,3.47
2023-03-29T13:59:07.860Z,4.57
2023-03-29T14:02:33.935Z,0.47
2023-03-29T14:05:49.612Z,4.53
2023-03-29T14:09:07.240Z,2.00
2023-03-29T14:12:20.423Z,4.23
2023-03-29T14:15:45.758Z,2.03
2023-03-29T14:18:55.332Z,1.53
2023-03-29T14:22:09.503Z,0.77
2023-03-29T14:25:22.676Z,0.90
2023-03-29T14:28:30.957Z,5.13
2023-03-29T14:31:42.256Z,0.70
2023-03-29T14:34:51.646Z,3.67
2023-03-29T14:38:04.558Z,4.73
2023-03-29T14:41:14.338Z,3.37
2023-03-29T14:44:27.010Z,0.77
2023-03-29T14:47:36.423Z,3.43
2023-03-29T14:50:47.975Z,1.73
2023-03-29T14:53:58.626Z,2.03
2023-03-29T14:57:08.747Z,2.53
2023-03-29T15:00:31.534Z,1.57
2023-03-29T15:03:56.216Z,1.87
2023-03-29T15:07:05.899Z,0.97
2023-03-29T15:10:21.221Z,2.47
2023-03-29T15:13:33.459Z,1.80
2023-03-29T15:16:47.515Z,4.03
2023-03-29T15:20:01.338Z,4.27
2023-03-29T15:23:23.518Z,2.10
2023-03-29T15:26:35.174Z,2.13
2023-03-29T15:29:48.447Z,2.57
2023-03-29T15:32:56.735Z,2.37
2023-03-29T15:36:08.310Z,2.10
2023-03-29T15:39:19.590Z,0.97
2023-03-29T15:42:28.118Z,3.57
2023-03-29T15:45:38.455Z,2.80
2023-03-29T15:48:46.818Z,2.83
2023-03-29T15:51:56.783Z,3.37
2023-03-29T15:55:06.124Z,0.77
2023-03-29T15:58:19.063Z,2.10
2023-03-29T16:01:37.734Z,6.10
2023-03-29T16:04:46.628Z,3.13
2023-03-29T16:07:55.608Z,4.37
2023-03-29T16:11:05.459Z,2.70
2023-03-29T16:14:25.080Z,1.57
2023-03-29T16:17:35.036Z,2.23
2023-03-29T16:20:43.443Z,1.77
2023-03-29T16:23:52.574Z,4.03
2023-03-29T16:27:03.154Z,7.97
2023-03-29T16:30:13.919Z,2.30
2023-03-29T16:33:23.721Z,4.50
2023-03-29T16:36:32.929Z,5.90
2023-03-29T16:39:41.518Z,2.57
2023-03-29T16:42:50.751Z,4.07
2023-03-29T16:45:59.282Z,5.83
2023-03-29T16:49:13.995Z,5.80
2023-03-29T16:52:23.255Z,2.93
2023-03-29T16:55:31.472Z,4.63
2023-03-29T16:58:40.864Z,4.07
2023-03-29T17:01:49.073Z,7.20
2023-03-29T17:04:58.641Z,9.60
2023-03-29T17:08:10.220Z,5.30
2023-03-29T17:11:23.021Z,4.47
2023-03-29T17:14:31.303Z,2.87
2023-03-29T17:17:40.968Z,6.97
2023-03-29T17:20:52.738Z,3.23
2023-03-29T17:24:00.950Z,3.17
2023-03-29T17:27:09.364Z,4.13
2023-03-29T17:30:17.909Z,3.37
2023-03-29T17:33:26.505Z,4.77
2023-03-29T17:36:37.336Z,5.23
2023-03-29T17:39:46.056Z,5.43
2023-03-29T17:42:54.478Z,6.20
2023-03-29T17:46:03.390Z,5.77
2023-03-29T17:49:11.878Z,4.17
2023-03-29T17:52:21.544Z,3.73
2023-03-29T17:55:29.595Z,6.27
2023-03-29T17:58:37.909Z,7.80
2023-03-29T18:01:47.409Z,5.97
2023-03-29T18:04:55.712Z,5.53
2023-03-29T18:08:05.845Z,4.20
2023-03-29T18:11:18.761Z,3.97
2023-03-29T18:14:27.147Z,4.30
2023-03-29T18:17:36.756Z,3.20
2023-03-29T18:20:46.623Z,2.77
2023-03-29T18:23:56.901Z,2.17
2023-03-29T18:27:05.501Z,2.10
2023-03-29T18:30:16.681Z,2.13
2023-03-29T18:33:25.771Z,4.57
2023-03-29T18:36:34.495Z,3.73
2023-03-29T18:39:44.876Z,4.80
2023-03-29T18:42:53.166Z,2.77
2023-03-29T18:46:02.137Z,6.47
2023-03-29T18:49:13.101Z,2.77
2023-03-29T18:52:21.825Z,2.13
2023-03-29T18:55:31.609Z,4.63
2023-03-29T18:58:39.810Z,3.47
2023-03-29T19:01:48.009Z,3.40
2023-03-29T19:04:56.140Z,3.67
2023-03-29T19:08:05.738Z,4.67
2023-03-29T19:11:15.413Z,3.03
2023-03-29T19:14:25.280Z,5.60
2023-03-29T19:17:33.717Z,4.40
2023-03-29T19:20:41.926Z,3.27
2023-03-29T19:23:52.862Z,4.43
2023-03-29T19:27:03.037Z,2.30
2023-03-29T19:30:12.732Z,6.13
2023-03-29T19:33:21.638Z,2.57
2023-03-29T19:36:29.854Z,5.83
2023-03-29T19:39:40.099Z,3.57
2023-03-29T19:42:49.750Z,4.53
2023-03-29T19:45:57.885Z,2.57
2023-03-29T19:49:08.574Z,4.00
2023-03-29T19:52:17.261Z,5.63
2023-03-29T19:55:26.031Z,3.30
2023-03-29T19:58:37.485Z,5.77
2023-03-29T20:01:50.855Z,3.57
2023-03-29T20:05:00.193Z,3.57
2023-03-29T20:08:09.303Z,2.17
2023-03-29T20:11:19.864Z,2.57
2023-03-29T20:14:34.627Z,3.67
2023-03-29T20:17:44.413Z,1.43
2023-03-29T20:20:52.609Z,3.47
2023-03-29T20:24:01.787Z,3.53
2023-03-29T20:27:11.039Z,4.77
2023-03-29T20:30:20.842Z,2.43
2023-03-29T20:33:29.078Z,5.57
2023-03-29T20:36:37.821Z,5.73
2023-03-29T20:39:46.429Z,4.50
2023-03-29T20:42:58.080Z,3.77
2023-03-29T20:46:14.884Z,3.87
2023-03-29T20:49:26.688Z,8.20
2023-03-29T20:52:35.934Z,4.30
2023-03-29T20:55:44.078Z,4.73
2023-03-29T20:58:55.653Z,3.80
2023-03-29T21:02:06.280Z,8.57
2023-03-29T21:05:15.688Z,4.23
2023-03-29T21:08:23.844Z,4.70
2023-03-29T21:11:32.580Z,3.50
2023-03-29T21:14:40.767Z,3.33
2023-03-29T21:17:51.121Z,4.73
2023-03-29T21:20:59.812Z,4.27
2023-03-29T21:24:10.311Z,3.57
2023-03-29T21:27:18.716Z,6.13
2023-03-29T21:30:27.962Z,6.93
2023-03-29T21:33:39.211Z,8.37
2023-03-29T21:36:47.307Z,6.27
2023-03-29T21:39:55.690Z,6.77
2023-03-29T21:43:04.093Z,3.23
2023-03-29T21:46:13.091Z,5.00
2023-03-29T21:49:22.812Z,4.70
2023-03-29T21:52:31.485Z,2.93
2023-03-29T21:55:39.695Z,3.73
2023-03-29T21:58:50.960Z,5.20
2023-03-29T22:01:59.249Z,2.97
2023-03-29T22:05:10.472Z,6.17
2023-03-29T22:08:19.148Z,5.37
2023-03-29T22:11:28.671Z,6.07
2023-03-29T22:14:37.451Z,3.07
2023-03-29T22:17:45.832Z,4.63
2023-03-29T22:20:55.668Z,6.33
2023-03-29T22:24:04.131Z,4.80
2023-03-29T22:27:13.445Z,3.73
2023-03-29T22:30:23.025Z,3.40
2023-03-29T22:33:32.634Z,2.30
2023-03-29T22:36:42.339Z,3.27
2023-03-29T22:39:50.670Z,5.13
2023-03-29T22:42:58.757Z,4.83
2023-03-29T22:46:09.310Z,4.47
2023-03-29T22:49:17.674Z,6.60
2023-03-29T22:52:27.473Z,6.73
2023-03-29T22:55:35.756Z,5.53
2023-03-29T22:58:45.087Z,6.50
2023-03-29T23:01:53.662Z,5.67
2023-03-29T23:05:02.251Z,6.37
2023-03-29T23:08:11.758Z,3.03
2023-03-29T23:11:20.279Z,3.73
2023-03-29T23:14:28.477Z,4.53
2023-03-29T23:17:37.197Z,5.23
2023-03-29T23:20:47.087Z,1.63
2023-03-29T23:23:56.768Z,3.70
2023-03-29T23:27:05.542Z,5.43
2023-03-29T23:30:14.332Z,2.57
2023-03-29T23:33:23.327Z,6.23
2023-03-29T23:36:32.654Z,3.07
2023-03-29T23:39:42.190Z,3.63
2023-03-29T23:42:50.571Z,3.27
2023-03-29T23:45:59.678Z,2.57
2023-03-29T23:49:08.354Z,3.10
2023-03-29T23:52:17.508Z,6.90
2023-03-29T23:55:27.266Z,6.10
2023-03-29T23:58:38.742Z,4.60
